Time;durP1;ratioP1;P1;durP2;ratioP2;P2;SDS_P1;SDS_P2;PMS_P1;PMS_P2;Temp;Humidity;BMP_temperature;BMP_pressure;BME280_temperature;BME280_humidity;BME280_pressure;Samples;Min_cycle;Max_cycle;Signal;HPM_P1;HPM_P2
2022/12/28 00:00:30;;;;;;;13.10;12.30;;;7.00;99.90;;;;;;5087293;28;20466;-72
2022/12/28 00:02:57;;;;;;;13.50;12.47;;;7.00;99.90;;;;;;5078035;28;20486;-70
2022/12/28 00:05:24;;;;;;;13.97;12.90;;;7.00;99.90;;;;;;5081106;28;20493;-72
2022/12/28 00:07:51;;;;;;;13.80;13.10;;;6.90;99.90;;;;;;5088404;28;20456;-69
2022/12/28 00:10:18;;;;;;;13.13;12.50;;;6.90;99.90;;;;;;5080318;28;20471;-69
2022/12/28 00:12:47;;;;;;;13.23;12.27;;;6.90;99.90;;;;;;5078184;28;20490;-70
2022/12/28 00:15:14;;;;;;;12.47;11.70;;;6.90;99.90;;;;;;5077049;28;20549;-70
2022/12/28 00:17:42;;;;;;;12.60;11.90;;;6.90;99.90;;;;;;5078807;28;20458;-71
2022/12/28 00:20:10;;;;;;;12.47;11.47;;;6.90;99.90;;;;;;5085232;28;20940;-72
2022/12/28 00:22:38;;;;;;;12.77;11.77;;;6.90;99.90;;;;;;5073892;28;20937;-71
2022/12/28 00:25:07;;;;;;;13.63;12.57;;;6.90;99.90;;;;;;5078997;28;20462;-69
2022/12/28 00:27:34;;;;;;;11.00;10.27;;;7.00;99.90;;;;;;5074977;28;20949;-71
2022/12/28 00:30:02;;;;;;;11.47;10.50;;;7.00;99.90;;;;;;5077429;28;20471;-73
2022/12/28 00:32:29;;;;;;;11.10;9.80;;;7.00;99.90;;;;;;5074722;28;20496;-72
2022/12/28 00:34:56;;;;;;;10.27;9.77;;;7.10;99.90;;;;;;5080191;28;20884;-69
2022/12/28 00:37:23;;;;;;;10.13;9.40;;;7.10;99.90;;;;;;5078516;28;20469;-71
2022/12/28 00:39:50;;;;;;;11.00;10.27;;;7.20;99.90;;;;;;5080201;28;20814;-70
2022/12/28 00:42:17;;;;;;;11.37;10.43;;;7.20;99.90;;;;;;5075756;28;20596;-71
2022/12/28 00:44:43;;;;;;;11.43;10.70;;;7.20;99.90;;;;;;5086174;28;20462;-70
2022/12/28 00:47:12;;;;;;;12.47;11.40;;;7.20;99.90;;;;;;5079951;28;20463;-72
2022/12/28 00:49:38;;;;;;;11.87;11.17;;;7.20;99.90;;;;;;5080644;28;20537;-72
2022/12/28 00:52:05;;;;;;;14.93;13.60;;;7.20;99.90;;;;;;5079672;28;20520;-70
2022/12/28 00:54:33;;;;;;;14.00;13.10;;;7.20;99.90;;;;;;5074156;28;20466;-68
2022/12/28 00:56:59;;;;;;;15.13;13.90;;;7.20;99.90;;;;;;5076757;28;20462;-72
2022/12/28 00:59:26;;;;;;;14.70;13.70;;;7.20;99.90;;;;;;5078601;28;20792;-69
2022/12/28 01:01:53;;;;;;;15.10;13.90;;;7.10;99.90;;;;;;5076103;28;20467;-71
2022/12/28 01:04:22;;;;;;;15.23;14.10;;;7.10;99.90;;;;;;5072510;28;20490;-70
2022/12/28 01:06:49;;;;;;;16.17;14.63;;;7.10;99.90;;;;;;5082517;28;20553;-70
2022/12/28 01:09:16;;;;;;;14.73;13.73;;;7.10;99.90;;;;;;5079486;28;20458;-71
2022/12/28 01:11:42;;;;;;;14.93;13.70;;;7.10;99.90;;;;;;5080267;28;20468;-71
2022/12/28 01:14:09;;;;;;;15.27;14.00;;;7.10;99.90;;;;;;5085707;28;20498;-72
2022/12/28 01:16:36;;;;;;;14.77;13.50;;;7.10;99.90;;;;;;5083055;28;20543;-69
2022/12/28 01:19:05;;;;;;;14.03;12.93;;;7.10;99.90;;;;;;5079446;28;20496;-70
2022/12/28 01:21:35;;;;;;;13.20;12.20;;;7.10;99.90;;;;;;5081443;28;20503;-72
2022/12/28 01:24:04;;;;;;;12.10;11.50;;;7.10;99.90;;;;;;5079612;28;20513;-70
2022/12/28 01:26:31;;;;;;;12.90;12.10;;;7.10;99.90;;;;;;5079486;28;20546;-70
2022/12/28 01:28:59;;;;;;;12.20;11.50;;;7.20;99.90;;;;;;5078095;28;20464;-72
2022/12/28 01:31:26;;;;;;;13.00;12.10;;;7.20;99.90;;;;;;5084758;28;20466;-73
2022/12/28 01:33:54;;;;;;;11.47;10.90;;;7.20;99.90;;;;;;5077911;28;20500;-72
2022/12/28 01:36:22;;;;;;;11.50;10.70;;;7.20;99.90;;;;;;5077215;28;20486;-71
2022/12/28 01:38:53;;;;;;;11.40;10.70;;;7.20;99.90;;;;;;5075288;28;20919;-71
2022/12/28 01:41:21;;;;;;;10.83;10.13;;;7.20;99.90;;;;;;5082364;28;20469;-72
2022/12/28 01:44:26;;;;;;;10.33;9.67;;;7.30;99.90;;;;;;5080594;28;20476;-73
2022/12/28 01:46:56;;;;;;;9.23;8.80;;;7.30;99.90;;;;;;5079114;28;20461;-70
2022/12/28 01:49:28;;;;;;;9.87;9.30;;;7.30;99.90;;;;;;5077553;28;20824;-72
2022/12/28 01:52:02;;;;;;;9.20;8.30;;;7.40;99.90;;;;;;5070825;28;20454;-72
2022/12/28 01:54:36;;;;;;;9.37;8.83;;;7.40;99.90;;;;;;5080419;28;20500;-71
2022/12/28 01:57:03;;;;;;;8.90;8.40;;;7.40;99.90;;;;;;5081161;28;20460;-69
2022/12/28 01:59:37;;;;;;;9.17;8.67;;;7.50;99.90;;;;;;5079002;28;20463;-70
2022/12/28 02:02:04;;;;;;;9.60;8.30;;;7.50;99.90;;;;;;5081144;28;20512;-71
2022/12/28 02:04:33;;;;;;;8.33;7.73;;;7.60;99.90;;;;;;5090381;28;20494;-73
2022/12/28 02:07:00;;;;;;;8.90;8.30;;;7.60;99.90;;;;;;5080967;28;21769;-72
2022/12/28 02:09:33;;;;;;;8.70;8.20;;;7.60;99.90;;;;;;5071709;28;20471;-73
2022/12/28 02:12:02;;;;;;;8.90;8.40;;;7.60;99.90;;;;;;5073828;28;20921;-71
2022/12/28 02:14:30;;;;;;;8.23;7.83;;;7.70;99.90;;;;;;5079632;28;20502;-71
2022/12/28 02:16:57;;;;;;;8.70;8.10;;;7.70;99.90;;;;;;5078195;28;20976;-71
2022/12/28 02:19:34;;;;;;;8.60;8.10;;;7.80;99.90;;;;;;5077902;28;20473;-72
2022/12/28 02:22:17;;;;;;;9.37;8.80;;;7.80;99.90;;;;;;5076200;28;20807;-70
2022/12/28 02:25:05;;;;;;;9.20;8.60;;;7.90;99.90;;;;;;5075847;28;20793;-71
2022/12/28 02:27:41;;;;;;;9.77;8.87;;;7.90;99.90;;;;;;5080961;28;20458;-71
2022/12/28 02:30:11;;;;;;;10.20;9.50;;;7.90;99.90;;;;;;5077729;28;20851;-71
2022/12/28 02:32:51;;;;;;;9.60;9.00;;;8.00;99.90;;;;;;5069321;28;20855;-72
2022/12/28 02:35:28;;;;;;;9.00;8.60;;;8.00;99.90;;;;;;5077946;28;20461;-72
2022/12/28 02:38:01;;;;;;;9.93;9.33;;;8.10;99.90;;;;;;5077725;28;20453;-71
2022/12/28 02:40:33;;;;;;;9.80;9.20;;;8.20;99.90;;;;;;5084837;28;20508;-72
2022/12/28 02:43:02;;;;;;;9.60;9.10;;;8.20;99.90;;;;;;5078149;28;20495;-73
2022/12/28 02:51:23;;;;;;;10.27;9.40;;;8.30;99.90;;;;;;5080119;28;20704;-73
2022/12/28 02:56:06;;;;;;;9.83;9.23;;;8.30;99.90;;;;;;5082830;28;20592;-72
2022/12/28 02:57:08;;;;;;;9.60;9.20;;;8.20;99.90;;;;;;5080445;28;20465;-71
2022/12/28 02:59:51;;;;;;;10.53;9.73;;;8.20;99.90;;;;;;5081447;28;20472;-71
2022/12/28 03:02:33;;;;;;;10.27;9.67;;;8.30;99.90;;;;;;5076422;28;22164;-71
2022/12/28 03:05:14;;;;;;;10.50;9.80;;;8.30;99.90;;;;;;5082256;28;20503;-72
2022/12/28 03:10:39;;;;;;;10.40;9.80;;;8.40;99.90;;;;;;5083636;28;20467;-70
2022/12/28 03:13:41;;;;;;;10.00;9.40;;;8.30;99.90;;;;;;5083893;28;20484;-71
2022/12/28 03:15:59;;;;;;;11.30;10.17;;;8.30;99.90;;;;;;5074603;28;20465;-73
2022/12/28 03:32:24;;;;;;;10.57;9.93;;;8.50;99.90;;;;;;5083257;28;20488;-73
2022/12/28 03:34:53;;;;;;;10.80;10.10;;;8.50;99.90;;;;;;5077071;28;20462;-72
2022/12/28 03:37:25;;;;;;;10.37;9.70;;;8.50;99.90;;;;;;5086396;28;20832;-70
2022/12/28 03:39:58;;;;;;;10.87;10.07;;;8.60;99.90;;;;;;5081515;28;20853;-72
2022/12/28 03:45:19;;;;;;;10.50;9.90;;;8.60;99.90;;;;;;5078683;28;20468;-70
2022/12/28 03:47:48;;;;;;;10.60;10.00;;;8.70;99.90;;;;;;5080197;28;20468;-74
2022/12/28 03:50:18;;;;;;;10.20;9.60;;;8.60;99.90;;;;;;5085419;28;20821;-71
2022/12/28 03:52:44;;;;;;;11.53;10.70;;;8.60;99.90;;;;;;5080515;28;22057;-72
2022/12/28 03:55:13;;;;;;;10.40;9.80;;;8.70;99.90;;;;;;5077261;28;20908;-70
2022/12/28 03:57:40;;;;;;;10.97;10.27;;;8.70;99.90;;;;;;5080014;28;20951;-70
2022/12/28 04:00:09;;;;;;;11.40;10.33;;;8.70;99.90;;;;;;5077674;28;20492;-71
2022/12/28 04:02:37;;;;;;;10.80;10.20;;;8.70;99.90;;;;;;5078513;28;20510;-73
2022/12/28 04:05:04;;;;;;;11.17;10.53;;;8.70;99.90;;;;;;5082890;28;20970;-70
2022/12/28 04:07:33;;;;;;;10.77;10.17;;;8.70;99.90;;;;;;5087565;28;20475;-73
2022/12/28 04:10:00;;;;;;;11.03;10.33;;;8.60;99.90;;;;;;5081696;28;20988;-71
2022/12/28 04:12:27;;;;;;;10.97;10.47;;;8.70;99.90;;;;;;5082874;28;20967;-70
2022/12/28 04:14:54;;;;;;;11.43;10.80;;;8.70;99.90;;;;;;5078567;28;21001;-71
2022/12/28 04:17:21;;;;;;;11.10;10.37;;;8.60;99.90;;;;;;5080326;28;20470;-72
2022/12/28 04:19:48;;;;;;;10.47;9.90;;;8.70;99.90;;;;;;5079761;28;21034;-72
2022/12/28 04:22:15;;;;;;;10.70;10.20;;;8.70;99.90;;;;;;5083250;28;20476;-71
2022/12/28 04:24:45;;;;;;;11.30;10.47;;;8.80;99.90;;;;;;5091735;28;20471;-70
2022/12/28 04:27:12;;;;;;;11.43;10.70;;;8.80;99.90;;;;;;5084543;28;20834;-72
2022/12/28 04:29:38;;;;;;;10.30;9.53;;;8.80;99.90;;;;;;5079166;28;20473;-72
2022/12/28 04:32:06;;;;;;;10.43;9.93;;;8.90;99.90;;;;;;5078750;28;20971;-71
2022/12/28 04:34:33;;;;;;;11.03;10.33;;;8.90;99.90;;;;;;5083280;28;20512;-73
2022/12/28 04:37:00;;;;;;;12.10;11.20;;;8.90;99.90;;;;;;5083468;28;20972;-73
2022/12/28 04:39:26;;;;;;;11.03;10.33;;;8.90;99.90;;;;;;5082532;28;20468;-69
2022/12/28 04:41:55;;;;;;;11.10;10.50;;;8.90;99.90;;;;;;5082261;28;20465;-71
2022/12/28 04:44:21;;;;;;;14.57;11.40;;;8.90;99.90;;;;;;5081091;28;20964;-70
2022/12/28 04:46:48;;;;;;;11.50;10.73;;;8.90;99.90;;;;;;5075509;28;20460;-69
2022/12/28 04:49:15;;;;;;;11.37;10.67;;;8.90;99.90;;;;;;5079430;28;20457;-70
2022/12/28 04:51:43;;;;;;;11.50;10.90;;;8.90;99.90;;;;;;5075727;28;20459;-72
2022/12/28 04:54:13;;;;;;;10.83;10.33;;;8.90;99.90;;;;;;5081801;28;20492;-71
2022/12/28 04:56:39;;;;;;;10.30;9.80;;;8.90;99.90;;;;;;5081741;28;20537;-70
2022/12/28 04:59:08;;;;;;;10.93;10.33;;;9.00;99.90;;;;;;5080042;28;20468;-71
2022/12/28 05:01:35;;;;;;;10.77;10.27;;;9.00;99.90;;;;;;5081023;28;20472;-74
2022/12/28 05:04:02;;;;;;;11.77;10.97;;;9.00;99.90;;;;;;5079695;28;21027;-71
2022/12/28 05:06:28;;;;;;;10.83;10.23;;;9.00;99.90;;;;;;5079070;28;20493;-72
2022/12/28 05:08:56;;;;;;;11.03;10.53;;;9.00;99.90;;;;;;5080390;28;20469;-73
2022/12/28 05:11:24;;;;;;;11.47;10.77;;;9.00;99.90;;;;;;5083481;28;20589;-71
2022/12/28 05:13:52;;;;;;;11.37;10.77;;;9.10;99.90;;;;;;5077427;28;20540;-72
2022/12/28 05:16:22;;;;;;;11.30;10.67;;;9.10;99.90;;;;;;5082232;28;20490;-72
2022/12/28 05:18:49;;;;;;;11.33;10.63;;;9.10;99.90;;;;;;5076906;28;20473;-72
2022/12/28 05:21:17;;;;;;;11.00;10.50;;;9.10;99.90;;;;;;5076450;28;20462;-73
2022/12/28 05:23:45;;;;;;;11.30;10.80;;;9.10;99.90;;;;;;5077417;28;20468;-72
2022/12/28 05:26:14;;;;;;;11.70;11.00;;;9.10;99.90;;;;;;5073368;28;20826;-74
2022/12/28 05:28:41;;;;;;;10.80;10.20;;;9.20;99.90;;;;;;5080452;28;20473;-71
2022/12/28 05:31:12;;;;;;;11.43;10.83;;;9.20;99.90;;;;;;5080879;28;20473;-72
2022/12/28 05:33:41;;;;;;;10.57;9.70;;;9.20;99.90;;;;;;5083079;28;20563;-70
2022/12/28 05:36:10;;;;;;;10.40;9.80;;;9.20;99.90;;;;;;5078271;28;20543;-73
2022/12/28 05:38:37;;;;;;;11.63;10.93;;;9.20;99.90;;;;;;5074706;28;20469;-70
2022/12/28 05:41:05;;;;;;;11.10;10.43;;;9.20;99.90;;;;;;5079002;28;20462;-72
2022/12/28 05:43:32;;;;;;;12.13;11.13;;;9.20;99.90;;;;;;5078530;28;20461;-71
2022/12/28 05:46:02;;;;;;;11.50;10.70;;;9.20;99.90;;;;;;5079102;28;20454;-71
2022/12/28 05:48:32;;;;;;;10.40;9.87;;;9.20;99.90;;;;;;5079798;28;20553;-72
2022/12/28 05:51:01;;;;;;;11.17;10.57;;;9.20;99.90;;;;;;5076349;28;20535;-72
2022/12/28 05:53:30;;;;;;;11.07;10.47;;;9.20;99.90;;;;;;5076204;28;20920;-71
2022/12/28 05:56:02;;;;;;;11.60;11.00;;;9.20;99.90;;;;;;5077062;28;20478;-73
2022/12/28 05:58:29;;;;;;;11.23;10.10;;;9.20;99.90;;;;;;5078826;28;20461;-74
2022/12/28 06:01:04;;;;;;;10.67;9.90;;;9.20;99.90;;;;;;5078939;28;20963;-74
2022/12/28 06:03:31;;;;;;;10.30;9.67;;;9.20;99.90;;;;;;5078979;28;20510;-71
2022/12/28 06:06:03;;;;;;;10.87;10.03;;;9.20;99.90;;;;;;5079344;28;20491;-75
2022/12/28 06:08:30;;;;;;;10.60;10.10;;;9.20;99.90;;;;;;5075351;28;21039;-72
2022/12/28 06:11:01;;;;;;;11.03;10.23;;;9.20;99.90;;;;;;5078876;28;20544;-73
2022/12/28 06:13:28;;;;;;;10.67;10.07;;;9.20;99.90;;;;;;5079231;28;21055;-73
2022/12/28 06:15:55;;;;;;;11.80;11.00;;;9.20;99.90;;;;;;5092639;28;20581;-72
2022/12/28 06:18:23;;;;;;;11.27;10.57;;;9.30;99.90;;;;;;5087896;28;20468;-73
2022/12/28 06:20:50;;;;;;;10.43;9.93;;;9.30;99.90;;;;;;5082263;28;20465;-71
2022/12/28 06:23:20;;;;;;;11.83;10.50;;;9.30;99.90;;;;;;5084131;28;20984;-74
2022/12/28 06:25:46;;;;;;;10.60;10.00;;;9.30;99.90;;;;;;5084853;28;20582;-73
2022/12/28 06:28:13;;;;;;;10.90;10.10;;;9.30;99.90;;;;;;5087168;28;20457;-72
2022/12/28 06:30:40;;;;;;;10.57;9.77;;;9.30;99.90;;;;;;5082860;28;20462;-72
2022/12/28 06:33:07;;;;;;;10.50;9.70;;;9.30;99.90;;;;;;5086858;28;20469;-73
2022/12/28 06:35:35;;;;;;;10.70;10.10;;;9.30;99.90;;;;;;5077042;28;20580;-70
2022/12/28 06:38:02;;;;;;;10.20;9.60;;;9.30;99.90;;;;;;5092430;28;20598;-73
2022/12/28 06:40:30;;;;;;;10.33;9.70;;;9.30;99.90;;;;;;5081142;28;20456;-73
2022/12/28 06:42:57;;;;;;;10.67;9.97;;;9.20;99.90;;;;;;5082727;28;20473;-70
2022/12/28 06:45:24;;;;;;;10.17;9.67;;;9.30;99.90;;;;;;5083756;28;20462;-74
2022/12/28 06:47:52;;;;;;;9.80;9.40;;;9.30;99.90;;;;;;5079890;28;20469;-72
2022/12/28 06:50:19;;;;;;;9.90;9.40;;;9.30;99.90;;;;;;5083531;28;20468;-72
2022/12/28 06:52:46;;;;;;;9.60;9.20;;;9.30;99.90;;;;;;5084136;28;20456;-72
2022/12/28 06:55:13;;;;;;;9.70;9.20;;;9.30;99.90;;;;;;5085915;28;20485;-73
2022/12/28 06:57:41;;;;;;;10.07;9.57;;;9.30;99.90;;;;;;5079929;28;20462;-75
2022/12/28 07:00:10;;;;;;;9.47;8.90;;;9.20;99.90;;;;;;5079520;28;20469;-72
2022/12/28 07:02:36;;;;;;;8.90;8.40;;;9.20;99.90;;;;;;5079442;28;20497;-71
2022/12/28 07:05:03;;;;;;;9.90;8.90;;;9.10;99.90;;;;;;5081650;28;21004;-72
2022/12/28 07:07:30;;;;;;;9.13;8.63;;;9.20;99.90;;;;;;5078383;28;20466;-73
2022/12/28 07:09:57;;;;;;;9.33;8.93;;;9.20;99.90;;;;;;5083865;28;20466;-74
2022/12/28 07:12:24;;;;;;;9.87;9.13;;;9.20;99.90;;;;;;5084518;28;20514;-72
2022/12/28 07:14:52;;;;;;;8.90;8.43;;;9.20;99.90;;;;;;5080856;28;20486;-73
2022/12/28 07:17:19;;;;;;;9.30;8.57;;;9.20;99.90;;;;;;5084849;28;20469;-71
2022/12/28 07:19:46;;;;;;;8.80;8.40;;;9.20;99.90;;;;;;5079902;28;20460;-70
2022/12/28 07:22:12;;;;;;;9.17;8.77;;;9.30;99.90;;;;;;5080239;28;20790;-74
2022/12/28 07:24:39;;;;;;;8.90;8.40;;;9.30;99.90;;;;;;5075912;28;20492;-74
2022/12/28 07:27:06;;;;;;;8.93;8.53;;;9.30;99.90;;;;;;5075583;28;20461;-71
2022/12/28 07:29:33;;;;;;;9.30;8.80;;;9.30;99.90;;;;;;5081354;28;20875;-71
2022/12/28 07:32:01;;;;;;;9.07;8.67;;;9.20;99.90;;;;;;5085641;28;20465;-72
2022/12/28 07:34:28;;;;;;;10.00;9.30;;;9.30;99.90;;;;;;5087455;28;20497;-71
2022/12/28 07:36:54;;;;;;;8.90;8.50;;;9.40;99.90;;;;;;5079422;28;20475;-71
2022/12/28 07:39:21;;;;;;;9.67;8.90;;;9.40;99.90;;;;;;5077903;28;20466;-71
2022/12/28 07:41:49;;;;;;;10.07;9.40;;;9.40;99.90;;;;;;5082979;28;20472;-73
2022/12/28 07:44:16;;;;;;;9.80;9.20;;;9.40;99.90;;;;;;5079907;28;20465;-72
2022/12/28 07:46:43;;;;;;;9.80;9.10;;;9.40;99.90;;;;;;5078946;28;20804;-71
2022/12/28 07:49:11;;;;;;;9.50;8.90;;;9.50;99.90;;;;;;5083051;28;20810;-70
2022/12/28 07:51:39;;;;;;;9.53;8.90;;;9.50;99.90;;;;;;5082964;28;20472;-70
2022/12/28 07:54:07;;;;;;;9.90;9.20;;;9.40;99.90;;;;;;5077017;28;20471;-71
2022/12/28 07:56:34;;;;;;;9.57;9.10;;;9.50;99.90;;;;;;5089963;28;20461;-71
2022/12/28 07:59:03;;;;;;;10.20;9.60;;;9.50;99.90;;;;;;5079246;28;20461;-72
2022/12/28 08:01:32;;;;;;;10.50;9.90;;;9.50;99.90;;;;;;5086698;28;20486;-73
2022/12/28 08:04:00;;;;;;;10.13;9.73;;;9.50;99.90;;;;;;5081299;28;20489;-73
2022/12/28 08:06:30;;;;;;;10.37;9.87;;;9.60;99.90;;;;;;5082195;28;20477;-71
2022/12/28 08:09:01;;;;;;;9.77;9.37;;;9.60;99.90;;;;;;5081995;28;20463;-74
2022/12/28 08:11:29;;;;;;;10.13;9.63;;;9.60;99.90;;;;;;5074368;28;20825;-70
2022/12/28 08:13:58;;;;;;;10.67;10.07;;;9.60;99.90;;;;;;5082815;28;20468;-72
2022/12/28 08:16:27;;;;;;;9.90;9.50;;;9.60;99.90;;;;;;5082075;28;20454;-72
2022/12/28 08:18:54;;;;;;;10.47;9.70;;;9.60;99.90;;;;;;5092569;28;20989;-70
2022/12/28 08:21:23;;;;;;;10.23;9.73;;;9.70;99.90;;;;;;5081251;28;20493;-70
2022/12/28 08:23:51;;;;;;;10.77;10.07;;;9.70;99.90;;;;;;5085299;28;20464;-72
2022/12/28 08:26:20;;;;;;;11.47;10.83;;;9.70;99.90;;;;;;5073438;28;20473;-73
2022/12/28 08:28:49;;;;;;;10.67;9.90;;;9.70;99.90;;;;;;5087820;28;20461;-73
2022/12/28 08:31:17;;;;;;;10.50;9.90;;;9.70;99.90;;;;;;5083191;28;20461;-70
2022/12/28 08:33:45;;;;;;;11.60;10.80;;;9.70;99.90;;;;;;5081894;28;20465;-73
2022/12/28 08:36:12;;;;;;;10.27;9.77;;;9.80;99.90;;;;;;5076690;28;20505;-71
2022/12/28 08:38:41;;;;;;;10.50;10.10;;;9.80;99.90;;;;;;5079279;28;20473;-72
2022/12/28 08:41:13;;;;;;;10.07;9.60;;;9.80;99.90;;;;;;5083727;28;20465;-70
2022/12/28 08:43:40;;;;;;;10.20;9.70;;;9.80;99.90;;;;;;5086403;28;20988;-71
2022/12/28 08:46:11;;;;;;;10.10;9.70;;;9.90;99.90;;;;;;5087617;28;20576;-72
2022/12/28 08:48:37;;;;;;;10.63;10.10;;;9.90;99.90;;;;;;5077417;28;20465;-70
2022/12/28 08:51:07;;;;;;;10.47;9.77;;;9.80;99.90;;;;;;5082532;28;20468;-70
2022/12/28 08:53:35;;;;;;;10.57;10.07;;;9.90;99.90;;;;;;5091494;28;20526;-70
2022/12/28 08:56:05;;;;;;;10.40;9.90;;;9.90;99.90;;;;;;5072348;28;20822;-70
2022/12/28 08:58:35;;;;;;;10.10;9.70;;;9.90;99.90;;;;;;5086298;28;20981;-70
2022/12/28 09:01:07;;;;;;;10.87;10.30;;;10.00;99.90;;;;;;5079365;28;20470;-70
2022/12/28 09:03:36;;;;;;;10.50;10.00;;;10.00;99.90;;;;;;5081565;28;20497;-71
2022/12/28 09:06:04;;;;;;;11.50;10.60;;;10.00;99.90;;;;;;5074568;28;21221;-71
2022/12/28 09:08:31;;;;;;;11.13;10.53;;;10.00;99.90;;;;;;5078853;28;20530;-70
2022/12/28 09:11:00;;;;;;;11.40;10.60;;;10.10;99.90;;;;;;5084066;28;21136;-70
2022/12/28 09:13:27;;;;;;;10.83;10.23;;;10.10;99.90;;;;;;5076543;28;20609;-73
2022/12/28 09:16:00;;;;;;;11.27;10.77;;;10.10;99.90;;;;;;5073981;28;20861;-70
2022/12/28 09:18:27;;;;;;;10.83;10.43;;;10.10;99.90;;;;;;5083958;28;20465;-71
2022/12/28 09:20:54;;;;;;;11.50;10.80;;;10.10;99.90;;;;;;5085380;28;20962;-74
2022/12/28 09:23:21;;;;;;;11.27;10.67;;;10.20;99.90;;;;;;5081210;28;20468;-73
2022/12/28 09:25:48;;;;;;;11.40;10.90;;;10.20;99.90;;;;;;5076586;28;20506;-72
2022/12/28 09:28:15;;;;;;;11.53;11.03;;;10.30;99.90;;;;;;5079280;28;20466;-74
2022/12/28 09:30:42;;;;;;;11.20;10.70;;;10.20;99.90;;;;;;5077846;28;20478;-70
2022/12/28 09:35:58;;;;;;;11.03;10.50;;;10.30;99.90;;;;;;5084414;28;20547;-75
2022/12/28 09:38:25;;;;;;;11.77;11.17;;;10.40;99.90;;;;;;5080541;28;20548;-72
2022/12/28 09:40:52;;;;;;;12.43;11.63;;;10.40;99.90;;;;;;5083391;28;20461;-70
2022/12/28 09:43:20;;;;;;;11.90;11.40;;;10.50;99.90;;;;;;5082883;28;21001;-71
2022/12/28 09:45:47;;;;;;;11.23;10.83;;;10.50;99.90;;;;;;5086648;28;20473;-71
2022/12/28 09:48:22;;;;;;;11.67;10.87;;;10.60;99.90;;;;;;5087372;28;20466;-74
2022/12/28 09:50:50;;;;;;;11.43;10.93;;;10.50;99.90;;;;;;5081359;28;20469;-75
2022/12/28 09:53:28;;;;;;;11.77;11.27;;;10.60;99.90;;;;;;5075733;28;20478;-73
2022/12/28 09:55:59;;;;;;;11.90;11.30;;;10.60;99.90;;;;;;5076860;28;20880;-72
2022/12/28 09:58:28;;;;;;;11.80;11.20;;;10.60;99.90;;;;;;5078880;28;20475;-75
2022/12/28 10:00:57;;;;;;;11.67;11.10;;;10.60;99.90;;;;;;5072903;28;20468;-71
2022/12/28 10:03:28;;;;;;;11.50;11.00;;;10.50;99.90;;;;;;5081809;28;20482;-71
2022/12/28 10:05:57;;;;;;;11.37;10.77;;;10.60;99.90;;;;;;5073107;28;20504;-71
2022/12/28 10:08:25;;;;;;;11.47;10.97;;;10.70;99.90;;;;;;5074536;28;20474;-71
2022/12/28 10:10:55;;;;;;;12.20;11.50;;;10.70;99.90;;;;;;5083335;28;20458;-71
2022/12/28 10:13:24;;;;;;;12.17;11.47;;;10.80;99.90;;;;;;5074692;28;20966;-71
2022/12/28 10:15:51;;;;;;;11.43;10.93;;;10.80;99.90;;;;;;5081443;28;21032;-71
2022/12/28 10:18:23;;;;;;;11.80;11.30;;;10.60;99.90;;;;;;5082267;28;20800;-71
2022/12/28 10:20:52;;;;;;;12.70;12.00;;;10.70;99.90;;;;;;5084384;28;20549;-71
2022/12/28 10:23:22;;;;;;;11.50;11.00;;;10.70;99.90;;;;;;5079570;28;20477;-71
2022/12/28 10:25:52;;;;;;;11.73;11.23;;;10.80;99.90;;;;;;5084622;28;20460;-71
2022/12/28 10:28:22;;;;;;;12.03;11.53;;;10.90;99.90;;;;;;5080205;28;20460;-71
2022/12/28 10:31:04;;;;;;;12.23;11.73;;;10.90;99.90;;;;;;5086411;28;20896;-71
2022/12/28 10:33:31;;;;;;;11.80;11.30;;;10.90;99.90;;;;;;5068116;28;20477;-71
2022/12/28 10:35:59;;;;;;;12.27;11.67;;;11.00;99.90;;;;;;5082746;28;20740;-71
2022/12/28 10:38:28;;;;;;;12.87;12.27;;;11.10;99.90;;;;;;5083316;28;20465;-74
2022/12/28 10:41:00;;;;;;;13.20;12.60;;;11.10;99.90;;;;;;5077901;28;20848;-73
2022/12/28 10:43:29;;;;;;;13.60;12.80;;;11.10;99.90;;;;;;5078807;28;20454;-71
2022/12/28 10:45:58;;;;;;;12.97;12.37;;;11.10;99.90;;;;;;5079149;28;20560;-71
2022/12/28 10:48:28;;;;;;;13.73;12.93;;;11.00;99.90;;;;;;5074504;28;20861;-71
2022/12/28 10:50:57;;;;;;;13.40;12.60;;;11.00;99.90;;;;;;5077490;28;20473;-71
2022/12/28 10:53:33;;;;;;;13.47;12.60;;;11.10;99.90;;;;;;5083686;28;20549;-71
2022/12/28 10:56:22;;;;;;;13.67;13.07;;;11.20;99.90;;;;;;5082131;28;20496;-71
2022/12/28 10:58:50;;;;;;;13.30;12.60;;;11.10;99.90;;;;;;5074677;28;20466;-71
2022/12/28 11:01:20;;;;;;;13.43;12.73;;;11.10;99.90;;;;;;5089399;28;20457;-71
2022/12/28 11:04:00;;;;;;;13.30;12.70;;;11.20;99.90;;;;;;5083625;28;20824;-71
2022/12/28 11:06:28;;;;;;;14.60;13.50;;;11.10;99.90;;;;;;5082469;28;20489;-70
2022/12/28 11:09:14;;;;;;;13.43;12.83;;;11.00;99.90;;;;;;5080746;28;20527;-71
2022/12/28 11:11:43;;;;;;;13.67;13.07;;;11.10;99.90;;;;;;5080452;28;20945;-71
2022/12/28 11:14:15;;;;;;;14.57;13.77;;;11.00;99.90;;;;;;5080839;28;20991;-71
2022/12/28 11:16:43;;;;;;;14.50;13.70;;;11.00;99.90;;;;;;5084450;28;20481;-71
2022/12/28 11:19:11;;;;;;;14.30;13.50;;;11.10;99.90;;;;;;5075731;28;20466;-70
2022/12/28 11:21:38;;;;;;;16.23;15.13;;;11.00;99.90;;;;;;5078862;28;20467;-70
2022/12/28 11:24:07;;;;;;;14.67;13.87;;;11.20;99.90;;;;;;5081820;28;20835;-72
2022/12/28 11:26:35;;;;;;;14.37;13.67;;;11.20;99.90;;;;;;5077369;28;20454;-73
2022/12/28 11:29:02;;;;;;;13.83;13.13;;;11.10;99.90;;;;;;5087567;28;20458;-73
2022/12/28 11:31:33;;;;;;;14.10;13.40;;;11.20;99.90;;;;;;5080623;28;21095;-73
2022/12/28 11:34:04;;;;;;;14.73;13.93;;;11.30;99.90;;;;;;5083265;28;20465;-71
2022/12/28 11:36:33;;;;;;;15.13;14.33;;;11.20;99.90;;;;;;5084780;28;20604;-70
2022/12/28 11:39:32;;;;;;;15.10;14.40;;;11.30;99.90;;;;;;5081215;28;20463;-71
2022/12/28 11:42:00;;;;;;;15.60;14.70;;;11.30;99.90;;;;;;5078596;28;20470;-70
2022/12/28 11:44:49;;;;;;;14.63;13.67;;;11.30;99.90;;;;;;5080040;28;20453;-72
2022/12/28 11:47:31;;;;;;;15.20;14.10;;;11.30;99.90;;;;;;5086920;28;20462;-75
2022/12/28 11:50:33;;;;;;;15.20;14.40;;;11.30;99.90;;;;;;5080538;28;21097;-75
2022/12/28 11:53:00;;;;;;;15.30;14.50;;;11.30;99.90;;;;;;5091332;28;20453;-70
2022/12/28 11:55:41;;;;;;;15.00;14.30;;;11.30;99.90;;;;;;5080195;28;20513;-70
2022/12/28 11:58:54;;;;;;;14.53;13.77;;;11.20;99.90;;;;;;5080189;28;20462;-71
2022/12/28 12:01:41;;;;;;;15.23;14.50;;;11.20;99.90;;;;;;5084675;28;20468;-73
2022/12/28 12:04:29;;;;;;;13.47;12.87;;;11.00;99.90;;;;;;5079045;28;20485;-70
2022/12/28 12:07:24;;;;;;;13.37;12.70;;;11.10;99.90;;;;;;5069044;28;20461;-69
2022/12/28 12:10:11;;;;;;;12.27;11.67;;;11.00;99.90;;;;;;5068672;28;20461;-70
2022/12/28 12:12:48;;;;;;;13.30;12.20;;;11.00;99.90;;;;;;5078106;28;20457;-70
2022/12/28 12:15:19;;;;;;;13.83;13.13;;;10.90;99.90;;;;;;5086518;28;20468;-70
2022/12/28 12:17:49;;;;;;;14.30;12.97;;;10.90;99.90;;;;;;5082482;28;20467;-70
2022/12/28 12:20:26;;;;;;;12.70;12.10;;;10.80;99.90;;;;;;5084152;28;20461;-73
2022/12/28 12:22:58;;;;;;;13.87;12.50;;;10.90;99.90;;;;;;5085784;28;20825;-71
2022/12/28 12:25:32;;;;;;;12.73;12.13;;;10.90;99.90;;;;;;5084982;28;20964;-71
2022/12/28 12:28:06;;;;;;;12.63;12.03;;;10.90;99.90;;;;;;5080352;28;20531;-70
2022/12/28 12:30:34;;;;;;;13.43;12.60;;;10.90;99.90;;;;;;5085473;28;20462;-73
2022/12/28 12:33:04;;;;;;;12.70;12.10;;;10.80;99.90;;;;;;5079502;28;20473;-70
2022/12/28 12:35:50;;;;;;;13.30;12.50;;;10.90;99.90;;;;;;5066731;28;20475;-70
2022/12/28 12:38:32;;;;;;;13.57;12.93;;;10.90;99.90;;;;;;5075592;28;20556;-70
2022/12/28 12:41:15;;;;;;;13.17;12.37;;;10.90;99.90;;;;;;5076797;28;20976;-72
2022/12/28 12:43:58;;;;;;;13.77;12.90;;;10.90;99.90;;;;;;5077080;28;20462;-70
2022/12/28 12:46:52;;;;;;;13.57;12.77;;;10.90;99.90;;;;;;5076708;28;20466;-72
2022/12/28 12:49:49;;;;;;;13.80;12.70;;;10.90;99.90;;;;;;5080700;28;20549;-69
2022/12/28 12:52:29;;;;;;;13.13;12.43;;;10.90;99.90;;;;;;5079190;28;20984;-72
2022/12/28 12:55:10;;;;;;;13.10;12.40;;;10.80;99.90;;;;;;5082585;28;20458;-70
2022/12/28 12:57:49;;;;;;;13.63;13.03;;;10.80;99.90;;;;;;5085560;28;20482;-70
2022/12/28 13:00:19;;;;;;;13.23;12.60;;;10.80;99.90;;;;;;5080274;28;20957;-72
2022/12/28 13:03:09;;;;;;;13.83;13.03;;;10.80;99.90;;;;;;5078669;28;20482;-70
2022/12/28 13:05:41;;;;;;;13.50;12.80;;;10.80;99.90;;;;;;5084250;28;20496;-70
2022/12/28 13:08:20;;;;;;;13.33;12.63;;;10.90;99.90;;;;;;5081096;28;20446;-72
2022/12/28 13:10:47;;;;;;;13.60;12.90;;;10.90;99.90;;;;;;5080612;28;20904;-70
2022/12/28 13:13:19;;;;;;;14.23;13.27;;;10.80;99.90;;;;;;5080051;28;20466;-70
2022/12/28 13:15:48;;;;;;;13.50;12.70;;;10.80;99.90;;;;;;5080892;28;20470;-71
2022/12/28 13:18:17;;;;;;;13.90;13.00;;;10.90;99.90;;;;;;5081797;28;20463;-70
2022/12/28 13:20:53;;;;;;;13.00;12.30;;;11.00;99.90;;;;;;5083208;28;20450;-73
2022/12/28 13:23:22;;;;;;;13.20;12.50;;;11.00;99.90;;;;;;5076676;28;20470;-74